Terminal Aerodrome Forecast
Issued by NWS Tulsa, OK

Home | Current Version | Previous Version | Text Only | Print | Product List | Glossary On
Versions: 1 2 3 4 5 6 7 8 9 10 11 12 13 14 15
000
FTUS44 KTSA 220317 AAA
TAFFSM
TAF AMD
KFSM 220317Z 2203/2224 08007KT P6SM OVC040
      TEMPO 2203/2207 5SM -SHRA BR BKN025
     FM220700 30007KT 2SM -RA BR OVC015
     FM221300 29008KT P6SM OVC010=

USA.gov is the U.S. government's official web portal to all federal, state and local government web resources and services.